sensor_id;sensor_type;location;lat;lon;timestamp;pressure;altitude;pressure_sealevel;temperature;humidity
14041;BME280;7095;51.388;6.196;2023-04-01T00:01:22;107703.22;;;-145.32;100.00
14041;BME280;7095;51.388;6.196;2023-04-01T00:03:50;107444.69;;;-145.32;100.00
14041;BME280;7095;51.388;6.196;2023-04-01T00:06:21;107444.69;;;-145.32;100.00
14041;BME280;7095;51.388;6.196;2023-04-01T00:08:49;107186.22;;;-145.32;100.00
14041;BME280;7095;51.388;6.196;2023-04-01T00:11:18;106927.75;;;-145.32;100.00
14041;BME280;7095;51.388;6.196;2023-04-01T00:13:47;106927.75;;;-145.32;100.00
14041;BME280;7095;51.388;6.196;2023-04-01T00:16:15;107186.22;;;-145.32;100.00
14041;BME280;7095;51.388;6.196;2023-04-01T00:18:50;107186.22;;;-145.32;100.00
14041;BME280;7095;51.388;6.196;2023-04-01T00:21:20;107444.69;;;-145.32;100.00
14041;BME280;7095;51.388;6.196;2023-04-01T00:23:49;107444.69;;;-145.32;100.00
14041;BME280;7095;51.388;6.196;2023-04-01T00:26:18;107703.22;;;-145.32;100.00
14041;BME280;7095;51.388;6.196;2023-04-01T00:28:48;107703.22;;;-145.32;100.00
14041;BME280;7095;51.388;6.196;2023-04-01T00:31:18;107961.72;;;-145.32;100.00
14041;BME280;7095;51.388;6.196;2023-04-01T00:33:47;107961.72;;;-145.32;100.00
14041;BME280;7095;51.388;6.196;2023-04-01T00:36:18;108220.28;;;-145.32;100.00
14041;BME280;7095;51.388;6.196;2023-04-01T00:38:49;108220.28;;;-145.32;100.00
14041;BME280;7095;51.388;6.196;2023-04-01T00:41:19;108220.28;;;-145.32;100.00
14041;BME280;7095;51.388;6.196;2023-04-01T00:43:52;108220.28;;;-145.32;100.00
14041;BME280;7095;51.388;6.196;2023-04-01T00:46:23;108478.84;;;-145.32;100.00
14041;BME280;7095;51.388;6.196;2023-04-01T00:48:54;108737.41;;;-145.32;100.00
14041;BME280;7095;51.388;6.196;2023-04-01T00:51:27;108996.00;;;-145.32;100.00
14041;BME280;7095;51.388;6.196;2023-04-01T00:53:58;108737.41;;;-145.32;100.00
14041;BME280;7095;51.388;6.196;2023-04-01T00:56:31;108220.28;;;-145.32;100.00
14041;BME280;7095;51.388;6.196;2023-04-01T00:59:05;108220.28;;;-145.32;100.00
14041;BME280;7095;51.388;6.196;2023-04-01T01:01:35;108220.28;;;-145.32;100.00
14041;BME280;7095;51.388;6.196;2023-04-01T01:04:04;108220.28;;;-145.32;100.00
14041;BME280;7095;51.388;6.196;2023-04-01T01:06:41;107961.72;;;-145.32;100.00
14041;BME280;7095;51.388;6.196;2023-04-01T01:09:25;107444.69;;;-145.32;100.00
14041;BME280;7095;51.388;6.196;2023-04-01T01:12:04;107444.69;;;-145.32;100.00
14041;BME280;7095;51.388;6.196;2023-04-01T01:14:43;107186.22;;;-145.32;100.00
14041;BME280;7095;51.388;6.196;2023-04-01T01:17:19;107186.22;;;-145.32;100.00
14041;BME280;7095;51.388;6.196;2023-04-01T01:26:13;106410.88;;;-145.32;100.00
14041;BME280;7095;51.388;6.196;2023-04-01T01:28:55;106410.88;;;-145.32;100.00
14041;BME280;7095;51.388;6.196;2023-04-01T01:31:33;106152.47;;;-145.32;100.00
14041;BME280;7095;51.388;6.196;2023-04-01T01:34:14;106152.47;;;-145.32;100.00
14041;BME280;7095;51.388;6.196;2023-04-01T01:36:49;106152.47;;;-145.32;100.00
14041;BME280;7095;51.388;6.196;2023-04-01T01:39:26;106410.88;;;-145.32;100.00
14041;BME280;7095;51.388;6.196;2023-04-01T01:41:57;106669.31;;;-145.32;100.00
14041;BME280;7095;51.388;6.196;2023-04-01T01:44:29;106927.75;;;-145.32;100.00
14041;BME280;7095;51.388;6.196;2023-04-01T01:46:59;107444.69;;;-145.32;100.00
14041;BME280;7095;51.388;6.196;2023-04-01T01:49:30;107703.22;;;-145.32;100.00
14041;BME280;7095;51.388;6.196;2023-04-01T01:52:01;107961.72;;;-145.32;100.00
14041;BME280;7095;51.388;6.196;2023-04-01T01:54:30;108220.28;;;-145.32;100.00
14041;BME280;7095;51.388;6.196;2023-04-01T01:57:03;108220.28;;;-145.32;100.00
14041;BME280;7095;51.388;6.196;2023-04-01T01:59:35;108478.84;;;-145.32;100.00
14041;BME280;7095;51.388;6.196;2023-04-01T02:02:08;108737.41;;;-145.32;100.00
14041;BME280;7095;51.388;6.196;2023-04-01T02:04:40;108996.00;;;-145.32;100.00
14041;BME280;7095;51.388;6.196;2023-04-01T02:07:16;109513.28;;;-145.32;100.00
14041;BME280;7095;51.388;6.196;2023-04-01T02:09:47;109771.94;;;-145.32;100.00
14041;BME280;7095;51.388;6.196;2023-04-01T02:12:19;110030.59;;;-145.32;100.00
14041;BME280;7095;51.388;6.196;2023-04-01T02:14:52;110289.28;;;-145.32;100.00
14041;BME280;7095;51.388;6.196;2023-04-01T02:17:23;110548.00;;;-145.32;100.00
14041;BME280;7095;51.388;6.196;2023-04-01T02:19:57;110806.75;;;-145.32;100.00
14041;BME280;7095;51.388;6.196;2023-04-01T02:22:30;111324.28;;;-145.32;100.00
14041;BME280;7095;51.388;6.196;2023-04-01T02:25:03;111324.28;;;-145.32;100.00
14041;BME280;7095;51.388;6.196;2023-04-01T02:27:32;111583.06;;;-145.32;100.00
14041;BME280;7095;51.388;6.196;2023-04-01T02:30:01;111841.88;;;-145.32;100.00
14041;BME280;7095;51.388;6.196;2023-04-01T02:32:31;112100.69;;;-145.32;100.00
14041;BME280;7095;51.388;6.196;2023-04-01T02:35:01;112100.69;;;-145.32;100.00
14041;BME280;7095;51.388;6.196;2023-04-01T02:37:31;112359.53;;;-145.32;100.00
14041;BME280;7095;51.388;6.196;2023-04-01T02:40:03;112359.53;;;-145.32;100.00
14041;BME280;7095;51.388;6.196;2023-04-01T02:42:32;112618.41;;;-145.32;100.00
14041;BME280;7095;51.388;6.196;2023-04-01T02:45:00;112618.41;;;-145.32;100.00
14041;BME280;7095;51.388;6.196;2023-04-01T02:47:28;112618.41;;;-145.32;100.00
14041;BME280;7095;51.388;6.196;2023-04-01T02:49:57;112618.41;;;-145.32;100.00
14041;BME280;7095;51.388;6.196;2023-04-01T02:52:28;112359.53;;;-145.32;100.00
14041;BME280;7095;51.388;6.196;2023-04-01T02:55:06;112618.41;;;-145.32;100.00
14041;BME280;7095;51.388;6.196;2023-04-01T02:57:35;112359.53;;;-145.32;100.00
14041;BME280;7095;51.388;6.196;2023-04-01T03:00:04;112359.53;;;-145.32;100.00
14041;BME280;7095;51.388;6.196;2023-04-01T03:02:38;112618.41;;;-145.32;100.00
14041;BME280;7095;51.388;6.196;2023-04-01T03:05:07;112618.41;;;-145.32;100.00
14041;BME280;7095;51.388;6.196;2023-04-01T03:07:36;112618.41;;;-145.32;100.00
14041;BME280;7095;51.388;6.196;2023-04-01T03:10:07;112618.41;;;-145.32;100.00
14041;BME280;7095;51.388;6.196;2023-04-01T03:12:35;112618.41;;;-145.32;100.00
14041;BME280;7095;51.388;6.196;2023-04-01T03:15:05;112618.41;;;-145.32;100.00
14041;BME280;7095;51.388;6.196;2023-04-01T03:17:38;112618.41;;;-145.32;100.00
14041;BME280;7095;51.388;6.196;2023-04-01T03:20:08;112359.53;;;-145.32;100.00
14041;BME280;7095;51.388;6.196;2023-04-01T03:22:37;112618.41;;;-145.32;100.00
14041;BME280;7095;51.388;6.196;2023-04-01T03:25:10;112618.41;;;-145.32;100.00
14041;BME280;7095;51.388;6.196;2023-04-01T03:27:38;112618.41;;;-145.32;100.00
14041;BME280;7095;51.388;6.196;2023-04-01T03:30:09;112618.41;;;-145.32;100.00
14041;BME280;7095;51.388;6.196;2023-04-01T03:32:46;112877.31;;;-145.32;100.00
14041;BME280;7095;51.388;6.196;2023-04-01T03:35:14;112877.31;;;-145.32;100.00
14041;BME280;7095;51.388;6.196;2023-04-01T03:37:45;113136.22;;;-145.32;100.00
14041;BME280;7095;51.388;6.196;2023-04-01T03:40:15;113395.13;;;-145.32;100.00
14041;BME280;7095;51.388;6.196;2023-04-01T03:42:44;113395.13;;;-145.32;100.00
14041;BME280;7095;51.388;6.196;2023-04-01T03:45:14;113395.13;;;-145.32;100.00
14041;BME280;7095;51.388;6.196;2023-04-01T03:47:42;113395.13;;;-145.32;100.00
14041;BME280;7095;51.388;6.196;2023-04-01T03:50:10;113395.13;;;-145.32;100.00
14041;BME280;7095;51.388;6.196;2023-04-01T03:52:39;113654.06;;;-145.32;100.00
14041;BME280;7095;51.388;6.196;2023-04-01T03:55:08;113654.06;;;-145.32;100.00
14041;BME280;7095;51.388;6.196;2023-04-01T03:57:39;113913.03;;;-145.32;100.00
14041;BME280;7095;51.388;6.196;2023-04-01T04:00:16;113913.03;;;-145.32;100.00
14041;BME280;7095;51.388;6.196;2023-04-01T04:02:48;113913.03;;;-145.32;100.00
14041;BME280;7095;51.388;6.196;2023-04-01T04:05:22;113913.03;;;-145.32;100.00
14041;BME280;7095;51.388;6.196;2023-04-01T04:07:50;113654.06;;;-145.32;100.00
14041;BME280;7095;51.388;6.196;2023-04-01T04:10:19;113913.03;;;-145.32;100.00
14041;BME280;7095;51.388;6.196;2023-04-01T04:12:54;113654.06;;;-145.32;100.00
14041;BME280;7095;51.388;6.196;2023-04-01T04:15:24;113654.06;;;-145.32;100.00
14041;BME280;7095;51.388;6.196;2023-04-01T04:17:53;113654.06;;;-145.32;100.00
14041;BME280;7095;51.388;6.196;2023-04-01T04:20:22;113654.06;;;-145.32;100.00
14041;BME280;7095;51.388;6.196;2023-04-01T04:22:50;113913.03;;;-145.32;100.00
14041;BME280;7095;51.388;6.196;2023-04-01T04:25:19;113913.03;;;-145.32;100.00
14041;BME280;7095;51.388;6.196;2023-04-01T04:27:47;113654.06;;;-145.32;100.00
14041;BME280;7095;51.388;6.196;2023-04-01T04:30:17;113913.03;;;-145.32;100.00
14041;BME280;7095;51.388;6.196;2023-04-01T04:32:46;113913.03;;;-145.32;100.00
14041;BME280;7095;51.388;6.196;2023-04-01T04:35:14;113913.03;;;-145.32;100.00
14041;BME280;7095;51.388;6.196;2023-04-01T04:37:43;113913.03;;;-145.32;100.00
14041;BME280;7095;51.388;6.196;2023-04-01T04:40:12;113913.03;;;-145.32;100.00
14041;BME280;7095;51.388;6.196;2023-04-01T04:42:41;113913.03;;;-145.32;100.00
14041;BME280;7095;51.388;6.196;2023-04-01T04:45:13;113913.03;;;-145.32;100.00
14041;BME280;7095;51.388;6.196;2023-04-01T04:47:51;114172.03;;;-145.32;100.00
14041;BME280;7095;51.388;6.196;2023-04-01T04:50:20;114172.03;;;-145.32;100.00
14041;BME280;7095;51.388;6.196;2023-04-01T04:52:48;114172.03;;;-145.32;100.00
14041;BME280;7095;51.388;6.196;2023-04-01T04:55:18;114172.03;;;-145.32;100.00
14041;BME280;7095;51.388;6.196;2023-04-01T04:57:50;114172.03;;;-145.32;100.00
14041;BME280;7095;51.388;6.196;2023-04-01T05:00:19;114172.03;;;-145.32;100.00
14041;BME280;7095;51.388;6.196;2023-04-01T05:03:01;114172.03;;;-145.32;100.00
14041;BME280;7095;51.388;6.196;2023-04-01T05:05:32;114172.03;;;-145.32;100.00
14041;BME280;7095;51.388;6.196;2023-04-01T05:08:02;114172.03;;;-145.32;100.00
14041;BME280;7095;51.388;6.196;2023-04-01T05:10:31;114172.03;;;-145.32;100.00
14041;BME280;7095;51.388;6.196;2023-04-01T05:12:59;114172.03;;;-145.32;100.00
14041;BME280;7095;51.388;6.196;2023-04-01T05:15:28;114172.03;;;-145.32;100.00
14041;BME280;7095;51.388;6.196;2023-04-01T05:17:56;114431.03;;;-145.32;100.00
14041;BME280;7095;51.388;6.196;2023-04-01T05:20:26;114172.03;;;-145.32;100.00
14041;BME280;7095;51.388;6.196;2023-04-01T05:22:55;114431.03;;;-145.32;100.00
14041;BME280;7095;51.388;6.196;2023-04-01T05:25:24;114431.03;;;-145.32;100.00
14041;BME280;7095;51.388;6.196;2023-04-01T05:27:52;114431.03;;;-145.32;100.00
14041;BME280;7095;51.388;6.196;2023-04-01T05:30:23;114431.03;;;-145.32;100.00
14041;BME280;7095;51.388;6.196;2023-04-01T05:33:04;114690.03;;;-145.32;100.00
14041;BME280;7095;51.388;6.196;2023-04-01T05:35:34;114690.03;;;-145.32;100.00
14041;BME280;7095;51.388;6.196;2023-04-01T05:38:04;114690.03;;;-145.32;100.00
14041;BME280;7095;51.388;6.196;2023-04-01T05:40:34;114690.03;;;-145.32;100.00
14041;BME280;7095;51.388;6.196;2023-04-01T05:43:03;114690.03;;;-145.32;100.00
14041;BME280;7095;51.388;6.196;2023-04-01T05:45:32;114690.03;;;-145.32;100.00
14041;BME280;7095;51.388;6.196;2023-04-01T05:48:13;114690.03;;;-145.32;100.00
14041;BME280;7095;51.388;6.196;2023-04-01T05:50:44;114690.03;;;-145.32;100.00
14041;BME280;7095;51.388;6.196;2023-04-01T05:53:13;114690.03;;;-145.32;100.00
14041;BME280;7095;51.388;6.196;2023-04-01T05:55:43;114690.03;;;-145.32;100.00
14041;BME280;7095;51.388;6.196;2023-04-01T05:58:12;114690.03;;;-145.32;100.00
14041;BME280;7095;51.388;6.196;2023-04-01T06:00:44;114690.03;;;-145.32;100.00
14041;BME280;7095;51.388;6.196;2023-04-01T06:03:16;114690.03;;;-145.32;100.00
14041;BME280;7095;51.388;6.196;2023-04-01T06:05:46;114690.03;;;-145.32;100.00
14041;BME280;7095;51.388;6.196;2023-04-01T06:08:16;114690.03;;;-145.32;100.00
14041;BME280;7095;51.388;6.196;2023-04-01T06:11:01;114431.03;;;-145.32;100.00
14041;BME280;7095;51.388;6.196;2023-04-01T06:16:36;114431.03;;;-145.32;100.00
14041;BME280;7095;51.388;6.196;2023-04-01T06:19:16;114172.03;;;-145.32;100.00
14041;BME280;7095;51.388;6.196;2023-04-01T06:22:03;114172.03;;;-145.32;100.00
14041;BME280;7095;51.388;6.196;2023-04-01T06:24:48;114172.03;;;-145.32;100.00
14041;BME280;7095;51.388;6.196;2023-04-01T06:27:36;114172.03;;;-145.32;100.00
14041;BME280;7095;51.388;6.196;2023-04-01T06:30:30;113913.03;;;-145.32;100.00
14041;BME280;7095;51.388;6.196;2023-04-01T06:33:20;113913.03;;;-145.32;100.00
14041;BME280;7095;51.388;6.196;2023-04-01T06:36:15;113654.06;;;-145.32;100.00
14041;BME280;7095;51.388;6.196;2023-04-01T06:38:59;113913.03;;;-145.32;100.00
14041;BME280;7095;51.388;6.196;2023-04-01T06:41:51;113913.03;;;-145.32;100.00
14041;BME280;7095;51.388;6.196;2023-04-01T06:44:35;113654.06;;;-145.32;100.00
14041;BME280;7095;51.388;6.196;2023-04-01T06:47:35;113654.06;;;-145.32;100.00
14041;BME280;7095;51.388;6.196;2023-04-01T06:50:47;113913.03;;;-145.32;100.00
14041;BME280;7095;51.388;6.196;2023-04-01T06:53:40;113913.03;;;-145.32;100.00
14041;BME280;7095;51.388;6.196;2023-04-01T06:56:43;113913.03;;;-145.32;100.00
14041;BME280;7095;51.388;6.196;2023-04-01T06:59:24;113913.03;;;-145.32;100.00
14041;BME280;7095;51.388;6.196;2023-04-01T07:01:55;114172.03;;;-145.32;100.00
14041;BME280;7095;51.388;6.196;2023-04-01T07:04:28;114172.03;;;-145.32;100.00
14041;BME280;7095;51.388;6.196;2023-04-01T07:06:59;113913.03;;;-145.32;100.00
14041;BME280;7095;51.388;6.196;2023-04-01T07:09:32;114172.03;;;-145.32;100.00
14041;BME280;7095;51.388;6.196;2023-04-01T07:12:34;113913.03;;;-145.32;100.00
14041;BME280;7095;51.388;6.196;2023-04-01T07:15:27;113913.03;;;-145.32;100.00
14041;BME280;7095;51.388;6.196;2023-04-01T07:18:02;113913.03;;;-145.32;100.00
14041;BME280;7095;51.388;6.196;2023-04-01T07:20:32;113654.06;;;-145.32;100.00
14041;BME280;7095;51.388;6.196;2023-04-01T07:23:06;113913.03;;;-145.32;100.00
14041;BME280;7095;51.388;6.196;2023-04-01T07:26:00;113913.03;;;-145.32;100.00
14041;BME280;7095;51.388;6.196;2023-04-01T07:28:51;113913.03;;;-145.32;100.00
14041;BME280;7095;51.388;6.196;2023-04-01T07:31:44;114172.03;;;-145.32;100.00
14041;BME280;7095;51.388;6.196;2023-04-01T07:34:19;113913.03;;;-145.32;100.00
14041;BME280;7095;51.388;6.196;2023-04-01T07:36:54;114172.03;;;-145.32;100.00
14041;BME280;7095;51.388;6.196;2023-04-01T07:39:37;113913.03;;;-145.32;100.00
14041;BME280;7095;51.388;6.196;2023-04-01T07:42:42;113913.03;;;-145.32;100.00
14041;BME280;7095;51.388;6.196;2023-04-01T07:45:20;113913.03;;;-145.32;100.00
14041;BME280;7095;51.388;6.196;2023-04-01T07:48:04;114172.03;;;-145.32;100.00
14041;BME280;7095;51.388;6.196;2023-04-01T07:50:40;114431.03;;;-145.32;100.00
14041;BME280;7095;51.388;6.196;2023-04-01T07:53:18;114431.03;;;-145.32;100.00
14041;BME280;7095;51.388;6.196;2023-04-01T07:55:58;114431.03;;;-145.32;100.00
14041;BME280;7095;51.388;6.196;2023-04-01T07:58:44;114431.03;;;-145.32;100.00
14041;BME280;7095;51.388;6.196;2023-04-01T08:01:42;114690.03;;;-145.32;100.00
14041;BME280;7095;51.388;6.196;2023-04-01T08:04:28;114690.03;;;-145.32;100.00
14041;BME280;7095;51.388;6.196;2023-04-01T08:07:05;114690.03;;;-145.32;100.00
14041;BME280;7095;51.388;6.196;2023-04-01T08:09:44;114431.03;;;-145.32;100.00
14041;BME280;7095;51.388;6.196;2023-04-01T08:12:44;114690.03;;;-145.32;100.00
14041;BME280;7095;51.388;6.196;2023-04-01T08:15:43;114431.03;;;-145.32;100.00
14041;BME280;7095;51.388;6.196;2023-04-01T08:18:40;114431.03;;;-145.32;100.00
14041;BME280;7095;51.388;6.196;2023-04-01T08:21:12;114690.03;;;-145.32;100.00
14041;BME280;7095;51.388;6.196;2023-04-01T08:23:44;114172.03;;;-145.32;100.00
14041;BME280;7095;51.388;6.196;2023-04-01T08:26:22;113913.03;;;-145.32;100.00
14041;BME280;7095;51.388;6.196;2023-04-01T08:29:00;113654.06;;;-145.32;100.00
14041;BME280;7095;51.388;6.196;2023-04-01T08:31:35;113136.22;;;-145.32;100.00
14041;BME280;7095;51.388;6.196;2023-04-01T08:34:12;112618.41;;;-145.32;100.00
14041;BME280;7095;51.388;6.196;2023-04-01T08:36:45;112877.31;;;-145.32;100.00
14041;BME280;7095;51.388;6.196;2023-04-01T08:39:18;112359.53;;;-145.32;100.00
14041;BME280;7095;51.388;6.196;2023-04-01T08:42:16;111583.06;;;-145.32;100.00
14041;BME280;7095;51.388;6.196;2023-04-01T08:45:34;111065.50;;;-145.32;100.00
14041;BME280;7095;51.388;6.196;2023-04-01T08:48:36;111324.28;;;-145.32;100.00
14041;BME280;7095;51.388;6.196;2023-04-01T08:54:33;110289.28;;;-145.32;100.00
14041;BME280;7095;51.388;6.196;2023-04-01T08:57:08;109771.94;;;-145.32;100.00
14041;BME280;7095;51.388;6.196;2023-04-01T09:00:14;109513.28;;;-145.32;100.00
14041;BME280;7095;51.388;6.196;2023-04-01T09:03:36;109513.28;;;-145.32;100.00
14041;BME280;7095;51.388;6.196;2023-04-01T09:06:28;107444.69;;;-145.32;100.00
14041;BME280;7095;51.388;6.196;2023-04-01T09:18:13;106927.75;;;-145.32;100.00
14041;BME280;7095;51.388;6.196;2023-04-01T09:21:02;106410.88;;;-145.32;100.00
14041;BME280;7095;51.388;6.196;2023-04-01T09:23:47;106927.75;;;-145.32;100.00
14041;BME280;7095;51.388;6.196;2023-04-01T09:26:34;106927.75;;;-145.32;100.00
14041;BME280;7095;51.388;6.196;2023-04-01T09:29:19;106410.88;;;-145.32;100.00
14041;BME280;7095;51.388;6.196;2023-04-01T09:32:06;107186.22;;;-145.32;100.00
14041;BME280;7095;51.388;6.196;2023-04-01T09:34:53;107703.22;;;-145.32;100.00
14041;BME280;7095;51.388;6.196;2023-04-01T09:37:40;108220.28;;;-145.32;100.00
14041;BME280;7095;51.388;6.196;2023-04-01T09:40:26;109254.63;;;-145.32;100.00
14041;BME280;7095;51.388;6.196;2023-04-01T09:43:15;108737.41;;;-145.32;100.00
14041;BME280;7095;51.388;6.196;2023-04-01T09:45:58;109513.28;;;-145.32;100.00
14041;BME280;7095;51.388;6.196;2023-04-01T09:51:39;109771.94;;;-145.32;100.00
14041;BME280;7095;51.388;6.196;2023-04-01T09:54:22;110806.75;;;-145.32;100.00
14041;BME280;7095;51.388;6.196;2023-04-01T09:57:19;111324.28;;;-145.32;100.00
14041;BME280;7095;51.388;6.196;2023-04-01T10:00:19;111324.28;;;-145.32;100.00
14041;BME280;7095;51.388;6.196;2023-04-01T10:03:48;110548.00;;;-145.32;100.00
14041;BME280;7095;51.388;6.196;2023-04-01T10:16:31;107186.22;;;-145.32;100.00
14041;BME280;7095;51.388;6.196;2023-04-01T10:19:44;106410.88;;;-145.32;100.00
14041;BME280;7095;51.388;6.196;2023-04-01T10:22:50;105635.72;;;-145.32;100.00
14041;BME280;7095;51.388;6.196;2023-04-01T10:32:37;104344.16;;;-145.32;100.00
14041;BME280;7095;51.388;6.196;2023-04-01T10:35:46;104085.91;;;-145.32;100.00
14041;BME280;7095;51.388;6.196;2023-04-01T10:41:44;103569.44;;;-145.32;100.00
14041;BME280;7095;51.388;6.196;2023-04-01T10:48:13;102278.66;;;-145.32;100.00
14041;BME280;7095;51.388;6.196;2023-04-01T10:51:00;102278.66;;;-145.32;100.00
14041;BME280;7095;51.388;6.196;2023-04-01T10:53:38;102020.53;;;-145.32;100.00
14041;BME280;7095;51.388;6.196;2023-04-01T10:56:39;102794.91;;;-145.32;100.00
14041;BME280;7095;51.388;6.196;2023-04-01T10:59:49;102536.75;;;-145.32;100.00
14041;BME280;7095;51.388;6.196;2023-04-01T11:03:02;103053.06;;;-145.32;100.00
14041;BME280;7095;51.388;6.196;2023-04-01T11:06:38;104344.16;;;-145.32;100.00
14041;BME280;7095;51.388;6.196;2023-04-01T11:09:49;104602.44;;;-145.32;100.00
14041;BME280;7095;51.388;6.196;2023-04-01T11:12:48;105119.03;;;-145.32;100.00
14041;BME280;7095;51.388;6.196;2023-04-01T11:21:56;108220.28;;;-145.32;100.00
14041;BME280;7095;51.388;6.196;2023-04-01T11:28:36;108478.84;;;-145.32;100.00
14041;BME280;7095;51.388;6.196;2023-04-01T11:31:31;109513.28;;;-145.32;100.00
14041;BME280;7095;51.388;6.196;2023-04-01T11:34:09;108737.41;;;-145.32;100.00
14041;BME280;7095;51.388;6.196;2023-04-01T11:36:51;108996.00;;;-145.32;100.00
14041;BME280;7095;51.388;6.196;2023-04-01T11:39:33;108478.84;;;-145.32;100.00
14041;BME280;7095;51.388;6.196;2023-04-01T11:42:34;107703.22;;;-145.32;100.00
14041;BME280;7095;51.388;6.196;2023-04-01T11:45:35;109513.28;;;-145.32;100.00
14041;BME280;7095;51.388;6.196;2023-04-01T11:51:11;108478.84;;;-145.32;100.00
14041;BME280;7095;51.388;6.196;2023-04-01T11:53:47;108737.41;;;-145.32;100.00
14041;BME280;7095;51.388;6.196;2023-04-01T11:56:42;107703.22;;;-145.32;100.00
14041;BME280;7095;51.388;6.196;2023-04-01T11:59:39;108220.28;;;-145.32;100.00
14041;BME280;7095;51.388;6.196;2023-04-01T12:02:16;107444.69;;;-145.32;100.00
14041;BME280;7095;51.388;6.196;2023-04-01T12:04:58;107186.22;;;-145.32;100.00
14041;BME280;7095;51.388;6.196;2023-04-01T12:07:53;107186.22;;;-145.32;100.00
14041;BME280;7095;51.388;6.196;2023-04-01T12:10:27;107961.72;;;-145.32;100.00
14041;BME280;7095;51.388;6.196;2023-04-01T12:13:11;105894.09;;;-145.32;100.00
14041;BME280;7095;51.388;6.196;2023-04-01T12:15:57;107444.69;;;-145.32;100.00
14041;BME280;7095;51.388;6.196;2023-04-01T12:18:34;106152.47;;;-145.32;100.00
14041;BME280;7095;51.388;6.196;2023-04-01T12:21:15;105894.09;;;-145.32;100.00
14041;BME280;7095;51.388;6.196;2023-04-01T12:27:02;104860.72;;;-145.32;100.00
14041;BME280;7095;51.388;6.196;2023-04-01T12:29:49;106152.47;;;-145.32;100.00
14041;BME280;7095;51.388;6.196;2023-04-01T12:32:30;104344.16;;;-145.32;100.00
14041;BME280;7095;51.388;6.196;2023-04-01T12:35:23;102794.91;;;-145.32;100.00
14041;BME280;7095;51.388;6.196;2023-04-01T12:38:02;103311.25;;;-145.32;100.00
14041;BME280;7095;51.388;6.196;2023-04-01T12:44:00;102536.75;;;-145.32;100.00
14041;BME280;7095;51.388;6.196;2023-04-01T12:46:42;102536.75;;;-145.32;100.00
14041;BME280;7095;51.388;6.196;2023-04-01T12:49:34;102020.53;;;-145.32;100.00
14041;BME280;7095;51.388;6.196;2023-04-01T12:52:09;102536.75;;;-145.32;100.00
14041;BME280;7095;51.388;6.196;2023-04-01T13:01:27;102536.75;;;-145.32;100.00
14041;BME280;7095;51.388;6.196;2023-04-01T13:04:29;102020.53;;;-145.32;100.00
14041;BME280;7095;51.388;6.196;2023-04-01T13:07:23;103053.06;;;-145.32;100.00
14041;BME280;7095;51.388;6.196;2023-04-01T13:10:07;103053.06;;;-145.32;100.00
14041;BME280;7095;51.388;6.196;2023-04-01T13:13:09;102020.53;;;-145.32;100.00
14041;BME280;7095;51.388;6.196;2023-04-01T13:15:46;102278.66;;;-145.32;100.00
14041;BME280;7095;51.388;6.196;2023-04-01T13:18:27;103053.06;;;-145.32;100.00
14041;BME280;7095;51.388;6.196;2023-04-01T13:21:05;102020.53;;;-145.32;100.00
14041;BME280;7095;51.388;6.196;2023-04-01T13:23:48;102020.53;;;-145.32;100.00
14041;BME280;7095;51.388;6.196;2023-04-01T13:26:24;101246.34;;;-145.32;100.00
14041;BME280;7095;51.388;6.196;2023-04-01T13:28:59;99956.41;;;-145.32;100.00
14041;BME280;7095;51.388;6.196;2023-04-01T13:31:48;99698.47;;;-145.32;100.00
14041;BME280;7095;51.388;6.196;2023-04-01T13:34:29;99698.47;;;-145.32;100.00
14041;BME280;7095;51.388;6.196;2023-04-01T13:37:19;99956.41;;;-145.32;100.00
14041;BME280;7095;51.388;6.196;2023-04-01T13:40:04;99182.69;;;-145.32;100.00
14041;BME280;7095;51.388;6.196;2023-04-01T13:42:45;98924.81;;;-145.32;100.00
14041;BME280;7095;51.388;6.196;2023-04-01T13:45:18;100214.34;;;-145.32;100.00
14041;BME280;7095;51.388;6.196;2023-04-01T13:48:00;99698.47;;;-145.32;100.00
14041;BME280;7095;51.388;6.196;2023-04-01T13:50:39;100472.31;;;-145.32;100.00
14041;BME280;7095;51.388;6.196;2023-04-01T13:53:33;100988.31;;;-145.32;100.00
14041;BME280;7095;51.388;6.196;2023-04-01T13:56:18;101762.47;;;-145.32;100.00
14041;BME280;7095;51.388;6.196;2023-04-01T13:59:03;102020.53;;;-145.32;100.00
14041;BME280;7095;51.388;6.196;2023-04-01T14:01:41;103311.25;;;-145.32;100.00
14041;BME280;7095;51.388;6.196;2023-04-01T14:04:47;104344.16;;;-145.32;100.00
14041;BME280;7095;51.388;6.196;2023-04-01T14:07:32;103569.44;;;-145.32;100.00
14041;BME280;7095;51.388;6.196;2023-04-01T14:10:25;104344.16;;;-145.32;100.00
14041;BME280;7095;51.388;6.196;2023-04-01T14:12:59;104344.16;;;-145.32;100.00
14041;BME280;7095;51.388;6.196;2023-04-01T14:15:42;105119.03;;;-145.32;100.00
14041;BME280;7095;51.388;6.196;2023-04-01T14:18:38;106152.47;;;-145.32;100.00
14041;BME280;7095;51.388;6.196;2023-04-01T14:21:19;106410.88;;;-145.32;100.00
14041;BME280;7095;51.388;6.196;2023-04-01T14:24:18;106669.31;;;-145.32;100.00
14041;BME280;7095;51.388;6.196;2023-04-01T14:30:07;106152.47;;;-145.32;100.00
14041;BME280;7095;51.388;6.196;2023-04-01T14:32:47;105635.72;;;-145.32;100.00
14041;BME280;7095;51.388;6.196;2023-04-01T14:35:25;105635.72;;;-145.32;100.00
14041;BME280;7095;51.388;6.196;2023-04-01T14:38:26;104860.72;;;-145.32;100.00
14041;BME280;7095;51.388;6.196;2023-04-01T14:41:02;105894.09;;;-145.32;100.00
14041;BME280;7095;51.388;6.196;2023-04-01T14:43:47;106927.75;;;-145.32;100.00
14041;BME280;7095;51.388;6.196;2023-04-01T14:46:33;107961.72;;;-145.32;100.00
14041;BME280;7095;51.388;6.196;2023-04-01T14:49:14;108220.28;;;-145.32;100.00
14041;BME280;7095;51.388;6.196;2023-04-01T14:51:45;108220.28;;;-145.32;100.00